X Fechar
foto
Salvar nos Favoritos

X Fechar
foto
Clique e saiba mais
Clique e saiba mais
Clique e saiba mais
Clique e saiba mais
Clique e saiba mais
Clique e saiba mais
Clique e saiba mais

América Sports

Capacete Companhia

Edgers Racing

KTM Sacramento

Toro Sports

Pro Tech

JPS Racing

MotoX Pneus

JP Motos

Clique e saiba mais

> Notícias > Últimas Notícias

Mundial de Motocross 2018 - Resultados e Vídeo de Semarang
Publicado em: 08/07/2018

Jeffrey Herlings fecha tour asiático com segunda vitória
Redação MotoX.com.br - Foto: Youthstream


Jorge Prado e Pauls Jonass

Vídeo Highlights



Resultados

P. # MXGP Bateria 1 País Moto V Dif Gap M.V. Speed
1 84 Herlings, Jeffrey NED KTM 17 33:54.179 0:00.000 1:51.867 56.3
2 243 Gajser, Tim SLO Hon 17 0:01.786 0:01.786 1:52.079 56.2
3 222 Cairoli, Antonio ITA KTM 17 0:13.879 0:12.093 1:53.125 55.6
4 25 Desalle, Clement BEL Kaw 17 0:17.519 0:03.640 1:53.223 55.6
5 21 Paulin, Gautier FRA Hus 17 0:20.604 0:03.085 1:53.282 55.6
6 89 Van Horebeek, Jeremy BEL Yam 17 0:22.007 0:01.403 1:53.071 55.7
7 100 Searle, Tommy GBR Kaw 17 0:35.278 0:13.271 1:52.519 55.9
8 77 Lupino, Alessandro ITA Kaw 17 0:49.077 0:13.799 1:54.147 55.1
9 99 Anstie, Max GBR Hus 17 0:59.110 0:10.033 1:54.669 54.9
10 22 Strijbos, Kevin BEL KTM 17 1:24.278 0:25.168 1:54.562 54.9
11 92 Guillod, Valentin SUI KTM 17 1:43.280 0:19.002 1:55.669 54.4
12 42 Waters, Todd AUS Hon 17 2:01.527 0:18.247 1:55.101 54.7
13 777 Bobryshev, Evgeny RUS Suz 16 1 lap 1 lap 1:57.381 53.6
14 336 Stewart, Lewis AUS Hus 16 1 lap 0:01.172 2:00.014 52.4
15 288 Lazaroni, Aldi INA Hus 15 2 laps 1 lap 2:09.182 48.7
16 705 Kusparwanto, Rizky Hanif INA Hus 15 2 laps 0:06.426 2:09.393 48.6
17 12 Nagl, Maximilian GER TM 17 0:26.300 -2 laps 1:53.011 55.7
18 259 Coldenhoff, Glenn NED KTM 17 0:34.693 0:08.393 1:52.859 55.8
19 701 Sondakh, Andre INA KTM 15 2 laps 2 laps 2:09.392 48.6
20 461 Febvre, Romain FRA Yam 12 5 laps 3 laps 1:52.877 55.8
21 162 Hendro, Farhan INA Hus 11 6 laps 1 lap 2:09.950 48.4
22 33 Lieber, Julien BEL Kaw 9 8 laps 2 laps 1:53.744 55.3
23 91 Seewer, Jeremy SUI Yam -1 18 laps 10 laps 0:00.000 0

P. # MXGP Bateria 2 País Moto V Dif Gap M.V. Speed
1 84 Herlings, Jeffrey NED KTM 17 34:21.626 0:00.000 1:53.117 55.6
2 25 Desalle, Clement BEL Kaw 17 0:05.537 0:05.537 1:53.524 55.4
3 243 Gajser, Tim SLO Hon 17 0:11.311 0:05.774 1:53.535 55.4
4 222 Cairoli, Antonio ITA KTM 17 0:18.393 0:07.082 1:54.338 55
5 91 Seewer, Jeremy SUI Yam 17 0:21.214 0:02.821 1:54.685 54.9
6 99 Anstie, Max GBR Hus 17 0:25.998 0:04.784 1:55.111 54.7
7 100 Searle, Tommy GBR Kaw 17 0:27.988 0:01.990 1:55.294 54.6
8 77 Lupino, Alessandro ITA Kaw 17 0:29.546 0:01.558 1:55.333 54.6
9 12 Nagl, Maximilian GER TM 17 0:32.666 0:03.120 1:54.777 54.8
10 33 Lieber, Julien BEL Kaw 17 0:40.658 0:07.992 1:54.702 54.9
11 21 Paulin, Gautier FRA Hus 17 0:42.126 0:01.468 1:54.918 54.8
12 461 Febvre, Romain FRA Yam 17 0:43.982 0:01.856 1:54.960 54.8
13 89 Van Horebeek, Jeremy BEL Yam 17 0:45.085 0:01.103 1:55.904 54.3
14 259 Coldenhoff, Glenn NED KTM 17 0:46.264 0:01.179 1:55.606 54.4
15 22 Strijbos, Kevin BEL KTM 17 1:34.083 0:47.819 1:57.309 53.7
16 42 Waters, Todd AUS Hon 17 1:55.828 0:21.745 1:57.291 53.7
17 92 Guillod, Valentin SUI KTM 16 1 lap 1 lap 1:59.347 52.7
18 336 Stewart, Lewis AUS Hus 16 1 lap 0:15.735 2:01.915 51.6
19 777 Bobryshev, Evgeny RUS Suz 15 2 laps 1 lap 1:56.477 54
20 705 Kusparwanto, Rizky Hanif INA Hus 15 2 laps 0:20.240 2:10.542 48.2
21 701 Sondakh, Andre INA KTM 15 2 laps 0:38.026 2:10.649 48.2
22 288 Lazaroni, Aldi INA Hus 13 4 laps 2 laps 2:11.626 47.8

Pódio
1. Jeffrey Herlings, 50pts
2. Tim Gajser, 42
3. Clement Desalle, 40

MX2 - Jorge Prado conquista sexto GP na temporada e empata com Pauls Jonass na classificação geral

P. # MX2 Bateria 1 País Moto V Dif Gap M.V. Speed
1 1 Jonass, Pauls LAT KTM 17 34:59.013 0:00.000 1:54.522 55
2 61 Prado, Jorge ESP KTM 17 0:04.137 0:04.137 1:55.327 54.6
3 919 Watson, Ben GBR Yam 17 0:22.101 0:17.964 1:55.941 54.3
4 127 Rodriguez, Anthony VEN Yam 17 0:41.937 0:19.836 1:57.412 53.6
5 10 Vlaanderen, Calvin NED Hon 17 0:43.971 0:02.034 1:56.909 53.8
6 747 Cervellin, Michele ITA Yam 17 0:44.344 0:00.373 1:58.159 53.3
7 64 Covington, Thomas USA Hus 17 0:57.170 0:12.826 1:57.861 53.4
8 811 Sterry, Adam GBR Kaw 17 1:03.984 0:06.814 1:58.209 53.2
9 172 Van doninck, Brent BEL Hus 17 1:14.133 0:10.149 1:57.262 53.7
10 193 Geerts, Jago BEL Yam 17 1:23.303 0:09.170 1:58.022 53.3
11 19 Olsen, Thomas Kjer DEN Hus 17 1:28.870 0:05.567 1:59.347 52.7
12 114 Roberts, Jy AUS Hus 16 1 lap 1 lap 2:00.314 52.3
13 325 Delvintor Alfarizi, Muhammad INA Hus 16 1 lap 0:07.611 2:04.061 50.7
14 206 Ismayana, Diva INA Hus 15 2 laps 1 lap 2:08.251 49.1
15 204 Maksum, Hilman INA Hus 12 5 laps 3 laps 2:14.809 46.7
16 98 Vaessen, Bas NED Hon 8 9 laps 4 laps 1:58.804 53
17 95 Furlotti, Simone ITA Yam 7 10 laps 1 lap 2:04.820 50.4
18 281 Pattipi, Yosua INA Hus 2 15 laps 5 laps 2:14.763 46.7

P. # MX2 Bateria 1 País Moto V Dif Gap M.V. Speed
1 61 Prado, Jorge ESP KTM 17 35:13.784 0:00.000 1:56.361 54.1
2 10 Vlaanderen, Calvin NED Hon 17 0:02.931 0:02.931 1:56.774 53.9
3 64 Covington, Thomas USA Hus 17 0:05.084 0:02.153 1:56.343 54.1
4 19 Olsen, Thomas Kjer DEN Hus 17 0:21.652 0:16.568 1:57.015 53.8
5 919 Watson, Ben GBR Yam 17 0:28.770 0:07.118 1:57.365 53.6
6 1 Jonass, Pauls LAT KTM 17 0:40.860 0:12.090 1:57.515 53.6
7 127 Rodriguez, Anthony VEN Yam 17 0:50.117 0:09.257 1:58.170 53.3
8 98 Vaessen, Bas NED Hon 17 1:13.213 0:23.096 1:59.986 52.5
9 172 Van doninck, Brent BEL Hus 17 1:19.115 0:05.902 1:59.465 52.7
10 811 Sterry, Adam GBR Kaw 17 1:28.895 0:09.780 2:00.506 52.2
11 747 Cervellin, Michele ITA Yam 17 1:56.930 0:28.035 1:59.459 52.7
12 325 Delvintor Alfarizi, Muhammad INA Hus 16 1 lap 1 lap 2:03.951 50.8
13 206 Ismayana, Diva INA Hus 15 2 laps 1 lap 2:11.394 47.9
14 204 Maksum, Hilman INA Hus 15 2 laps 0:04.407 2:11.531 47.8
15 114 Roberts, Jy AUS Hus 6 11 laps 9 laps 2:00.246 52.3

Pódio
1. Jorge Prado, 47
2. Pauls JOnass, 40
3. Calvin Vlaanderen, 38





Curso MotoX
JPS Racing

© 2000 - 2018 MotoX MX1 Internet